sensor_id;sensor_type;location;lat;lon;timestamp;pressure;altitude;pressure_sealevel;temperature;humidity
65173;BME280;51758;52.218;5.172;2023-03-03T00:02:14;101183.19;;;1.31;100.00
65173;BME280;51758;52.218;5.172;2023-03-03T00:04:42;101177.13;;;1.32;100.00
65173;BME280;51758;52.218;5.172;2023-03-03T00:07:10;101151.72;;;1.27;100.00
65173;BME280;51758;52.218;5.172;2023-03-03T00:09:40;101131.59;;;1.21;100.00
65173;BME280;51758;52.218;5.172;2023-03-03T00:12:20;101109.81;;;1.14;100.00
65173;BME280;51758;52.218;5.172;2023-03-03T00:14:51;101127.19;;;1.23;100.00
65173;BME280;51758;52.218;5.172;2023-03-03T00:17:21;101115.38;;;1.32;100.00
65173;BME280;51758;52.218;5.172;2023-03-03T00:19:50;101077.81;;;1.18;100.00
65173;BME280;51758;52.218;5.172;2023-03-03T00:22:26;101094.22;;;1.28;100.00
65173;BME280;51758;52.218;5.172;2023-03-03T00:24:58;101090.16;;;1.37;100.00
65173;BME280;51758;52.218;5.172;2023-03-03T00:27:29;101085.94;;;1.36;100.00
65173;BME280;51758;52.218;5.172;2023-03-03T00:29:59;101081.63;;;1.36;100.00
65173;BME280;51758;52.218;5.172;2023-03-03T00:32:30;101079.03;;;1.36;100.00
65173;BME280;51758;52.218;5.172;2023-03-03T00:35:22;101077.94;;;1.28;100.00
65173;BME280;51758;52.218;5.172;2023-03-03T00:37:53;101066.16;;;1.25;100.00
65173;BME280;51758;52.218;5.172;2023-03-03T00:40:23;101090.81;;;1.28;100.00
65173;BME280;51758;52.218;5.172;2023-03-03T00:42:52;101082.94;;;1.18;100.00
65173;BME280;51758;52.218;5.172;2023-03-03T00:45:37;101085.53;;;1.18;100.00
65173;BME280;51758;52.218;5.172;2023-03-03T00:48:18;101075.81;;;1.11;100.00
65173;BME280;51758;52.218;5.172;2023-03-03T00:50:47;101078.59;;;1.07;100.00
65173;BME280;51758;52.218;5.172;2023-03-03T00:53:17;101095.66;;;1.08;100.00
65173;BME280;51758;52.218;5.172;2023-03-03T00:55:47;101096.75;;;0.93;100.00
65173;BME280;51758;52.218;5.172;2023-03-03T00:58:15;101087.19;;;0.95;100.00
65173;BME280;51758;52.218;5.172;2023-03-03T01:00:45;101096.44;;;0.98;100.00
65173;BME280;51758;52.218;5.172;2023-03-03T01:03:13;101105.41;;;0.92;100.00
65173;BME280;51758;52.218;5.172;2023-03-03T01:05:41;101094.91;;;0.95;100.00
65173;BME280;51758;52.218;5.172;2023-03-03T01:08:09;101097.47;;;0.95;100.00
65173;BME280;51758;52.218;5.172;2023-03-03T01:10:40;101032.72;;;0.43;100.00
65173;BME280;51758;52.218;5.172;2023-03-03T01:13:09;101096.19;;;0.77;100.00
65173;BME280;51758;52.218;5.172;2023-03-03T01:15:38;101074.88;;;0.64;100.00
65173;BME280;51758;52.218;5.172;2023-03-03T01:18:08;101085.09;;;0.77;100.00
65173;BME280;51758;52.218;5.172;2023-03-03T01:20:36;101034.56;;;0.41;100.00
65173;BME280;51758;52.218;5.172;2023-03-03T01:23:05;101083.28;;;0.66;100.00
65173;BME280;51758;52.218;5.172;2023-03-03T01:25:33;101082.25;;;0.68;100.00
65173;BME280;51758;52.218;5.172;2023-03-03T01:28:01;101076.75;;;0.62;100.00
65173;BME280;51758;52.218;5.172;2023-03-03T01:30:29;100999.72;;;0.13;100.00
65173;BME280;51758;52.218;5.172;2023-03-03T01:32:57;101063.34;;;0.69;100.00
65173;BME280;51758;52.218;5.172;2023-03-03T01:35:26;101056.47;;;0.70;100.00
65173;BME280;51758;52.218;5.172;2023-03-03T01:37:55;101049.69;;;0.69;100.00
65173;BME280;51758;52.218;5.172;2023-03-03T01:40:29;101038.56;;;0.68;100.00
65173;BME280;51758;52.218;5.172;2023-03-03T01:43:00;101041.88;;;0.70;100.00
65173;BME280;51758;52.218;5.172;2023-03-03T01:45:38;101029.38;;;0.77;100.00
65173;BME280;51758;52.218;5.172;2023-03-03T01:48:30;100976.84;;;0.57;100.00
65173;BME280;51758;52.218;5.172;2023-03-03T01:51:03;100933.03;;;0.48;100.00
65173;BME280;51758;52.218;5.172;2023-03-03T01:58:42;100981.22;;;1.03;100.00
65173;BME280;51758;52.218;5.172;2023-03-03T02:04:36;100904.13;;;0.68;100.00
65173;BME280;51758;52.218;5.172;2023-03-03T02:07:24;100898.78;;;0.71;100.00
65173;BME280;51758;52.218;5.172;2023-03-03T02:29:35;100931.13;;;1.31;100.00
65173;BME280;51758;52.218;5.172;2023-03-03T02:32:03;100948.53;;;1.27;100.00
65173;BME280;51758;52.218;5.172;2023-03-03T02:34:43;100931.09;;;1.08;100.00
65173;BME280;51758;52.218;5.172;2023-03-03T02:37:11;100957.44;;;1.23;100.00
65173;BME280;51758;52.218;5.172;2023-03-03T02:39:39;100976.66;;;1.06;100.00
65173;BME280;51758;52.218;5.172;2023-03-03T02:42:10;100958.13;;;1.25;100.00
65173;BME280;51758;52.218;5.172;2023-03-03T02:44:40;100960.56;;;1.16;100.00
65173;BME280;51758;52.218;5.172;2023-03-03T02:47:08;100966.28;;;1.19;100.00
65173;BME280;51758;52.218;5.172;2023-03-03T02:49:36;100911.75;;;0.81;100.00
65173;BME280;51758;52.218;5.172;2023-03-03T02:52:07;100966.78;;;1.24;100.00
65173;BME280;51758;52.218;5.172;2023-03-03T02:54:36;100875.97;;;0.66;100.00
65173;BME280;51758;52.218;5.172;2023-03-03T02:57:05;100969.34;;;1.24;100.00
65173;BME280;51758;52.218;5.172;2023-03-03T02:59:34;100924.75;;;1.01;100.00
65173;BME280;51758;52.218;5.172;2023-03-03T03:02:03;100967.63;;;1.36;100.00
65173;BME280;51758;52.218;5.172;2023-03-03T03:04:32;100971.00;;;1.36;100.00
65173;BME280;51758;52.218;5.172;2023-03-03T03:07:00;100972.03;;;1.34;100.00
65173;BME280;51758;52.218;5.172;2023-03-03T03:09:28;100975.78;;;1.30;100.00
65173;BME280;51758;52.218;5.172;2023-03-03T03:11:56;100979.75;;;1.23;100.00
65173;BME280;51758;52.218;5.172;2023-03-03T03:14:25;100978.22;;;1.31;100.00
65173;BME280;51758;52.218;5.172;2023-03-03T03:16:52;100983.38;;;1.31;100.00
65173;BME280;51758;52.218;5.172;2023-03-03T03:19:21;100967.13;;;1.31;100.00
65173;BME280;51758;52.218;5.172;2023-03-03T03:21:49;100971.47;;;1.41;100.00
65173;BME280;51758;52.218;5.172;2023-03-03T03:24:17;100971.13;;;1.46;100.00
65173;BME280;51758;52.218;5.172;2023-03-03T03:26:45;100974.41;;;1.48;100.00
65173;BME280;51758;52.218;5.172;2023-03-03T03:29:12;100971.34;;;1.54;100.00
65173;BME280;51758;52.218;5.172;2023-03-03T03:31:40;100974.50;;;1.47;100.00
65173;BME280;51758;52.218;5.172;2023-03-03T03:34:09;100976.97;;;1.48;100.00
65173;BME280;51758;52.218;5.172;2023-03-03T03:36:38;100989.25;;;1.44;100.00
65173;BME280;51758;52.218;5.172;2023-03-03T03:39:06;100988.09;;;1.49;100.00
65173;BME280;51758;52.218;5.172;2023-03-03T03:41:33;101001.06;;;1.47;100.00
65173;BME280;51758;52.218;5.172;2023-03-03T03:44:01;101000.34;;;1.45;100.00
65173;BME280;51758;52.218;5.172;2023-03-03T03:46:29;101002.94;;;1.45;100.00
65173;BME280;51758;52.218;5.172;2023-03-03T03:48:57;101009.13;;;1.54;100.00
65173;BME280;51758;52.218;5.172;2023-03-03T03:51:24;101007.75;;;1.50;100.00
65173;BME280;51758;52.218;5.172;2023-03-03T03:53:53;101016.28;;;1.61;100.00
65173;BME280;51758;52.218;5.172;2023-03-03T03:56:21;100948.63;;;1.15;100.00
65173;BME280;51758;52.218;5.172;2023-03-03T03:58:49;101010.53;;;1.58;100.00
65173;BME280;51758;52.218;5.172;2023-03-03T04:01:16;101036.16;;;1.48;100.00
65173;BME280;51758;52.218;5.172;2023-03-03T04:03:44;101032.03;;;1.46;100.00
65173;BME280;51758;52.218;5.172;2023-03-03T04:06:12;101034.50;;;1.47;100.00
65173;BME280;51758;52.218;5.172;2023-03-03T04:08:40;101026.78;;;1.47;100.00
65173;BME280;51758;52.218;5.172;2023-03-03T04:11:09;101029.50;;;1.57;100.00
65173;BME280;51758;52.218;5.172;2023-03-03T04:13:36;101040.69;;;1.33;100.00
65173;BME280;51758;52.218;5.172;2023-03-03T04:16:04;101044.09;;;1.45;100.00
65173;BME280;51758;52.218;5.172;2023-03-03T04:18:32;101020.22;;;1.32;100.00
65173;BME280;51758;52.218;5.172;2023-03-03T04:21:00;101027.97;;;1.54;100.00
65173;BME280;51758;52.218;5.172;2023-03-03T04:23:28;101023.19;;;1.50;100.00
65173;BME280;51758;52.218;5.172;2023-03-03T04:25:55;101036.16;;;1.59;100.00
65173;BME280;51758;52.218;5.172;2023-03-03T04:28:24;101024.44;;;1.55;100.00
65173;BME280;51758;52.218;5.172;2023-03-03T04:30:52;101032.03;;;1.46;100.00
65173;BME280;51758;52.218;5.172;2023-03-03T04:33:20;101038.25;;;1.54;100.00
65173;BME280;51758;52.218;5.172;2023-03-03T04:35:48;101030.31;;;1.57;100.00
65173;BME280;51758;52.218;5.172;2023-03-03T04:38:16;101024.13;;;1.60;100.00
65173;BME280;51758;52.218;5.172;2023-03-03T04:40:44;101022.38;;;1.71;100.00
65173;BME280;51758;52.218;5.172;2023-03-03T04:43:12;101018.75;;;1.63;100.00
65173;BME280;51758;52.218;5.172;2023-03-03T04:45:41;100994.28;;;1.57;100.00
65173;BME280;51758;52.218;5.172;2023-03-03T04:48:09;101024.00;;;1.72;100.00
65173;BME280;51758;52.218;5.172;2023-03-03T04:50:37;101009.00;;;1.66;100.00
65173;BME280;51758;52.218;5.172;2023-03-03T04:53:04;101016.28;;;1.72;100.00
65173;BME280;51758;52.218;5.172;2023-03-03T04:55:34;101023.06;;;1.73;100.00
65173;BME280;51758;52.218;5.172;2023-03-03T04:58:02;101025.44;;;1.76;100.00
65173;BME280;51758;52.218;5.172;2023-03-03T05:00:30;101020.63;;;1.83;100.00
65173;BME280;51758;52.218;5.172;2023-03-03T05:02:59;101015.81;;;1.90;100.00
65173;BME280;51758;52.218;5.172;2023-03-03T05:05:27;101021.78;;;1.90;100.00
65173;BME280;51758;52.218;5.172;2023-03-03T05:07:55;101008.22;;;1.88;100.00
65173;BME280;51758;52.218;5.172;2023-03-03T05:10:22;100959.66;;;1.50;100.00
65173;BME280;51758;52.218;5.172;2023-03-03T05:12:50;101001.28;;;1.77;100.00
65173;BME280;51758;52.218;5.172;2023-03-03T05:15:18;101008.22;;;1.88;100.00
65173;BME280;51758;52.218;5.172;2023-03-03T05:17:46;100977.69;;;1.72;100.00
65173;BME280;51758;52.218;5.172;2023-03-03T05:20:15;101008.56;;;1.95;100.00
65173;BME280;51758;52.218;5.172;2023-03-03T05:22:43;101008.44;;;1.96;100.00
65173;BME280;51758;52.218;5.172;2023-03-03T05:25:11;101001.03;;;2.03;100.00
65173;BME280;51758;52.218;5.172;2023-03-03T05:27:39;101012.19;;;1.92;100.00
65173;BME280;51758;52.218;5.172;2023-03-03T05:30:08;100993.44;;;1.90;100.00
65173;BME280;51758;52.218;5.172;2023-03-03T05:32:36;101004.94;;;1.97;100.00
65173;BME280;51758;52.218;5.172;2023-03-03T05:35:04;101004.00;;;1.98;100.00
65173;BME280;51758;52.218;5.172;2023-03-03T05:37:34;100995.22;;;1.90;100.00
65173;BME280;51758;52.218;5.172;2023-03-03T05:40:01;100997.53;;;1.93;100.00
65173;BME280;51758;52.218;5.172;2023-03-03T05:42:29;100989.59;;;1.96;100.00
65173;BME280;51758;52.218;5.172;2023-03-03T05:44:57;100989.13;;;2.02;100.00
65173;BME280;51758;52.218;5.172;2023-03-03T05:47:25;100990.41;;;1.96;100.00
65173;BME280;51758;52.218;5.172;2023-03-03T05:49:53;100961.63;;;1.91;100.00
65173;BME280;51758;52.218;5.172;2023-03-03T05:52:20;100987.81;;;2.07;100.00
65173;BME280;51758;52.218;5.172;2023-03-03T05:54:51;100991.47;;;1.94;100.00
65173;BME280;51758;52.218;5.172;2023-03-03T05:57:18;100985.34;;;2.06;100.00
65173;BME280;51758;52.218;5.172;2023-03-03T05:59:46;100965.13;;;1.90;100.00
65173;BME280;51758;52.218;5.172;2023-03-03T06:02:14;100976.84;;;1.94;100.00
65173;BME280;51758;52.218;5.172;2023-03-03T06:04:41;100994.84;;;2.05;100.00
65173;BME280;51758;52.218;5.172;2023-03-03T06:07:09;100833.28;;;1.21;100.00
65173;BME280;51758;52.218;5.172;2023-03-03T06:09:37;100975.53;;;2.11;100.00
65173;BME280;51758;52.218;5.172;2023-03-03T06:12:06;100979.75;;;2.12;100.00
65173;BME280;51758;52.218;5.172;2023-03-03T06:14:34;100930.84;;;1.78;100.00
65173;BME280;51758;52.218;5.172;2023-03-03T06:17:02;100980.81;;;1.98;100.00
65173;BME280;51758;52.218;5.172;2023-03-03T06:19:29;100985.88;;;1.89;100.00
65173;BME280;51758;52.218;5.172;2023-03-03T06:21:57;100982.09;;;2.04;100.00
65173;BME280;51758;52.218;5.172;2023-03-03T06:24:26;100964.88;;;2.04;100.00
65173;BME280;51758;52.218;5.172;2023-03-03T06:26:55;100987.47;;;2.12;100.00
65173;BME280;51758;52.218;5.172;2023-03-03T06:29:24;100998.22;;;2.06;100.00
65173;BME280;51758;52.218;5.172;2023-03-03T06:31:53;100967.34;;;1.95;100.00
65173;BME280;51758;52.218;5.172;2023-03-03T06:34:21;100988.19;;;2.14;100.00
65173;BME280;51758;52.218;5.172;2023-03-03T06:36:49;100996.13;;;2.11;100.00
65173;BME280;51758;52.218;5.172;2023-03-03T06:39:17;100995.31;;;2.10;100.00
65173;BME280;51758;52.218;5.172;2023-03-03T06:41:45;100995.91;;;2.03;100.00
65173;BME280;51758;52.218;5.172;2023-03-03T06:44:13;101007.16;;;2.02;100.00
65173;BME280;51758;52.218;5.172;2023-03-03T06:46:42;100999.75;;;2.08;100.00
65173;BME280;51758;52.218;5.172;2023-03-03T06:49:09;101002.81;;;2.13;100.00
65173;BME280;51758;52.218;5.172;2023-03-03T06:51:38;100982.09;;;2.15;100.00
65173;BME280;51758;52.218;5.172;2023-03-03T06:54:10;100994.25;;;2.24;100.00
65173;BME280;51758;52.218;5.172;2023-03-03T06:56:40;100995.19;;;2.23;100.00
65173;BME280;51758;52.218;5.172;2023-03-03T06:59:11;100991.31;;;2.17;100.00
65173;BME280;51758;52.218;5.172;2023-03-03T07:01:41;100982.88;;;2.15;100.00
65173;BME280;51758;52.218;5.172;2023-03-03T07:04:13;100962.34;;;1.82;100.00
65173;BME280;51758;52.218;5.172;2023-03-03T07:06:42;100967.94;;;1.98;100.00
65173;BME280;51758;52.218;5.172;2023-03-03T07:09:17;101012.38;;;2.34;100.00
65173;BME280;51758;52.218;5.172;2023-03-03T07:11:46;101014.69;;;2.37;100.00
65173;BME280;51758;52.218;5.172;2023-03-03T07:14:16;101020.69;;;2.37;100.00
65173;BME280;51758;52.218;5.172;2023-03-03T07:16:46;101027.22;;;2.41;100.00
65173;BME280;51758;52.218;5.172;2023-03-03T07:19:24;101016.44;;;2.47;100.00
65173;BME280;51758;52.218;5.172;2023-03-03T07:21:56;101028.56;;;2.57;100.00
65173;BME280;51758;52.218;5.172;2023-03-03T07:24:25;101028.00;;;2.64;100.00
65173;BME280;51758;52.218;5.172;2023-03-03T07:26:58;101034.34;;;2.49;100.00
65173;BME280;51758;52.218;5.172;2023-03-03T07:29:28;101032.78;;;2.58;100.00
65173;BME280;51758;52.218;5.172;2023-03-03T07:31:58;101016.13;;;2.19;100.00
65173;BME280;51758;52.218;5.172;2023-03-03T07:34:35;101036.22;;;2.47;100.00
65173;BME280;51758;52.218;5.172;2023-03-03T07:37:11;101030.09;;;2.59;100.00
65173;BME280;51758;52.218;5.172;2023-03-03T07:39:44;101035.47;;;2.67;100.00
65173;BME280;51758;52.218;5.172;2023-03-03T07:42:21;101032.53;;;2.72;100.00
65173;BME280;51758;52.218;5.172;2023-03-03T07:44:54;101039.94;;;2.65;100.00
65173;BME280;51758;52.218;5.172;2023-03-03T07:47:25;101042.34;;;2.78;100.00
65173;BME280;51758;52.218;5.172;2023-03-03T07:49:54;100996.47;;;2.61;100.00
65173;BME280;51758;52.218;5.172;2023-03-03T07:52:25;101045.59;;;2.91;100.00
65173;BME280;51758;52.218;5.172;2023-03-03T07:54:55;101022.16;;;2.83;100.00
65173;BME280;51758;52.218;5.172;2023-03-03T07:57:27;101061.66;;;2.83;100.00
65173;BME280;51758;52.218;5.172;2023-03-03T08:00:00;101074.94;;;2.68;100.00
65173;BME280;51758;52.218;5.172;2023-03-03T08:02:40;101068.25;;;2.76;100.00
65173;BME280;51758;52.218;5.172;2023-03-03T08:05:27;101068.34;;;2.86;100.00
65173;BME280;51758;52.218;5.172;2023-03-03T08:08:05;101062.38;;;3.06;100.00
65173;BME280;51758;52.218;5.172;2023-03-03T08:10:41;101054.22;;;3.01;100.00
65173;BME280;51758;52.218;5.172;2023-03-03T08:13:17;100988.91;;;2.48;100.00
65173;BME280;51758;52.218;5.172;2023-03-03T08:15:48;101063.09;;;3.08;100.00
65173;BME280;51758;52.218;5.172;2023-03-03T08:18:22;101076.91;;;3.07;100.00
65173;BME280;51758;52.218;5.172;2023-03-03T08:20:52;101082.78;;;3.30;100.00
65173;BME280;51758;52.218;5.172;2023-03-03T08:23:21;101090.16;;;3.35;100.00
65173;BME280;51758;52.218;5.172;2023-03-03T08:25:50;101092.88;;;3.33;100.00
65173;BME280;51758;52.218;5.172;2023-03-03T08:28:19;101086.94;;;3.42;100.00
65173;BME280;51758;52.218;5.172;2023-03-03T08:30:47;101025.34;;;3.07;100.00
65173;BME280;51758;52.218;5.172;2023-03-03T08:33:16;101103.47;;;3.51;100.00
65173;BME280;51758;52.218;5.172;2023-03-03T08:35:46;101101.41;;;3.66;100.00
65173;BME280;51758;52.218;5.172;2023-03-03T08:38:15;101097.25;;;3.84;100.00
65173;BME280;51758;52.218;5.172;2023-03-03T08:40:45;101029.19;;;3.54;100.00
65173;BME280;51758;52.218;5.172;2023-03-03T08:43:13;101069.16;;;3.90;100.00
65173;BME280;51758;52.218;5.172;2023-03-03T08:45:44;101097.69;;;4.19;100.00
65173;BME280;51758;52.218;5.172;2023-03-03T08:48:12;101060.63;;;4.00;100.00
65173;BME280;51758;52.218;5.172;2023-03-03T08:50:41;101064.19;;;4.08;100.00
65173;BME280;51758;52.218;5.172;2023-03-03T08:53:11;101118.97;;;4.32;100.00
65173;BME280;51758;52.218;5.172;2023-03-03T08:55:40;101073.16;;;3.74;100.00
65173;BME280;51758;52.218;5.172;2023-03-03T08:58:08;101155.81;;;4.55;100.00
65173;BME280;51758;52.218;5.172;2023-03-03T09:00:36;101166.44;;;4.62;100.00
65173;BME280;51758;52.218;5.172;2023-03-03T09:03:04;101179.00;;;4.46;100.00
65173;BME280;51758;52.218;5.172;2023-03-03T09:05:34;101189.03;;;4.69;100.00
65173;BME280;51758;52.218;5.172;2023-03-03T09:08:02;101192.78;;;4.86;100.00
65173;BME280;51758;52.218;5.172;2023-03-03T09:10:32;101191.09;;;4.36;100.00
65173;BME280;51758;52.218;5.172;2023-03-03T09:13:05;101225.81;;;4.73;100.00
65173;BME280;51758;52.218;5.172;2023-03-03T09:15:36;101227.06;;;4.79;100.00
65173;BME280;51758;52.218;5.172;2023-03-03T09:18:13;101229.66;;;4.18;100.00
65173;BME280;51758;52.218;5.172;2023-03-03T09:20:43;101272.59;;;4.60;100.00
65173;BME280;51758;52.218;5.172;2023-03-03T09:23:24;101258.03;;;4.99;100.00
65173;BME280;51758;52.218;5.172;2023-03-03T09:25:56;101209.66;;;4.50;100.00
65173;BME280;51758;52.218;5.172;2023-03-03T09:28:27;101287.75;;;5.05;100.00
65173;BME280;51758;52.218;5.172;2023-03-03T09:30:57;101280.34;;;5.40;100.00
65173;BME280;51758;52.218;5.172;2023-03-03T09:33:28;101288.69;;;5.63;100.00
65173;BME280;51758;52.218;5.172;2023-03-03T09:36:03;101313.75;;;5.44;100.00
65173;BME280;51758;52.218;5.172;2023-03-03T09:38:33;101314.22;;;5.78;100.00
65173;BME280;51758;52.218;5.172;2023-03-03T09:44:18;101360.59;;;5.81;100.00
65173;BME280;51758;52.218;5.172;2023-03-03T09:46:58;101324.84;;;5.15;100.00
65173;BME280;51758;52.218;5.172;2023-03-03T09:49:31;101426.59;;;5.46;100.00
65173;BME280;51758;52.218;5.172;2023-03-03T09:52:19;101442.44;;;5.53;100.00
65173;BME280;51758;52.218;5.172;2023-03-03T09:55:00;101359.38;;;4.53;100.00
65173;BME280;51758;52.218;5.172;2023-03-03T09:57:38;101461.53;;;5.52;100.00
65173;BME280;51758;52.218;5.172;2023-03-03T10:00:19;101468.72;;;5.48;100.00
65173;BME280;51758;52.218;5.172;2023-03-03T10:03:07;101491.19;;;5.68;100.00
65173;BME280;51758;52.218;5.172;2023-03-03T10:05:46;101495.44;;;5.79;100.00
65173;BME280;51758;52.218;5.172;2023-03-03T10:08:34;101515.63;;;5.85;100.00
65173;BME280;51758;52.218;5.172;2023-03-03T10:11:14;101480.13;;;5.66;100.00
65173;BME280;51758;52.218;5.172;2023-03-03T10:13:54;101514.00;;;6.15;100.00
65173;BME280;51758;52.218;5.172;2023-03-03T10:16:41;101523.56;;;6.14;100.00
65173;BME280;51758;52.218;5.172;2023-03-03T10:19:23;101559.00;;;5.83;100.00
65173;BME280;51758;52.218;5.172;2023-03-03T10:22:01;101560.88;;;5.92;100.00
65173;BME280;51758;52.218;5.172;2023-03-03T10:24:39;101590.19;;;5.93;100.00
65173;BME280;51758;52.218;5.172;2023-03-03T10:27:25;101593.78;;;5.81;100.00
65173;BME280;51758;52.218;5.172;2023-03-03T10:30:02;101577.44;;;6.10;100.00
65173;BME280;51758;52.218;5.172;2023-03-03T10:32:41;101607.00;;;5.78;100.00
65173;BME280;51758;52.218;5.172;2023-03-03T10:35:38;101601.97;;;5.86;100.00
65173;BME280;51758;52.218;5.172;2023-03-03T10:38:23;101613.44;;;5.62;100.00
65173;BME280;51758;52.218;5.172;2023-03-03T10:41:02;101613.44;;;5.62;100.00
65173;BME280;51758;52.218;5.172;2023-03-03T10:43:44;101603.69;;;5.75;100.00
65173;BME280;51758;52.218;5.172;2023-03-03T10:46:36;101595.63;;;5.07;100.00
65173;BME280;51758;52.218;5.172;2023-03-03T10:49:21;101509.69;;;4.92;100.00
65173;BME280;51758;52.218;5.172;2023-03-03T10:52:14;101569.28;;;5.64;100.00
65173;BME280;51758;52.218;5.172;2023-03-03T10:54:56;101368.41;;;6.00;100.00
65173;BME280;51758;52.218;5.172;2023-03-03T10:57:33;101438.28;;;8.52;100.00
65173;BME280;51758;52.218;5.172;2023-03-03T11:00:16;101597.16;;;8.51;100.00
65173;BME280;51758;52.218;5.172;2023-03-03T11:02:58;101565.22;;;9.89;100.00
65173;BME280;51758;52.218;5.172;2023-03-03T11:05:34;101595.06;;;10.79;100.00
65173;BME280;51758;52.218;5.172;2023-03-03T11:08:11;101712.72;;;11.11;100.00
65173;BME280;51758;52.218;5.172;2023-03-03T11:10:53;101951.63;;;10.22;100.00
65173;BME280;51758;52.218;5.172;2023-03-03T11:13:30;102007.34;;;10.48;100.00
65173;BME280;51758;52.218;5.172;2023-03-03T11:16:20;101972.69;;;12.01;100.00
65173;BME280;51758;52.218;5.172;2023-03-03T11:19:00;102057.13;;;12.78;100.00
65173;BME280;51758;52.218;5.172;2023-03-03T11:21:31;102183.03;;;13.35;100.00
65173;BME280;51758;52.218;5.172;2023-03-03T11:24:18;102245.66;;;13.30;100.00
65173;BME280;51758;52.218;5.172;2023-03-03T11:27:08;102290.22;;;12.87;100.00
65173;BME280;51758;52.218;5.172;2023-03-03T11:29:51;102344.91;;;12.56;100.00
65173;BME280;51758;52.218;5.172;2023-03-03T11:32:34;102234.84;;;11.35;100.00
65173;BME280;51758;52.218;5.172;2023-03-03T11:35:15;102207.31;;;10.51;100.00
65173;BME280;51758;52.218;5.172;2023-03-03T11:37:53;102335.56;;;10.38;100.00
65173;BME280;51758;52.218;5.172;2023-03-03T11:40:25;102305.47;;;9.66;100.00
65173;BME280;51758;52.218;5.172;2023-03-03T11:43:00;102329.34;;;9.72;100.00
65173;BME280;51758;52.218;5.172;2023-03-03T11:45:36;102319.31;;;9.48;100.00
65173;BME280;51758;52.218;5.172;2023-03-03T11:48:13;102306.00;;;9.01;100.00
65173;BME280;51758;52.218;5.172;2023-03-03T11:50:47;102299.25;;;8.89;100.00
65173;BME280;51758;52.218;5.172;2023-03-03T11:53:31;102301.91;;;8.68;100.00
65173;BME280;51758;52.218;5.172;2023-03-03T11:56:16;102297.75;;;8.56;100.00
65173;BME280;51758;52.218;5.172;2023-03-03T11:58:53;102291.88;;;8.33;100.00
65173;BME280;51758;52.218;5.172;2023-03-03T12:01:35;102259.66;;;8.13;100.00
65173;BME280;51758;52.218;5.172;2023-03-03T12:04:10;102018.75;;;8.22;100.00
65173;BME280;51758;52.218;5.172;2023-03-03T12:06:48;102008.88;;;10.94;100.00
65173;BME280;51758;52.218;5.172;2023-03-03T12:09:38;102091.84;;;13.12;100.00
65173;BME280;51758;52.218;5.172;2023-03-03T12:12:13;102333.38;;;13.01;100.00
65173;BME280;51758;52.218;5.172;2023-03-03T12:14:52;102423.66;;;13.33;100.00
65173;BME280;51758;52.218;5.172;2023-03-03T12:17:46;102446.59;;;12.53;100.00
65173;BME280;51758;52.218;5.172;2023-03-03T12:20:20;102458.03;;;11.99;100.00
65173;BME280;51758;52.218;5.172;2023-03-03T12:23:00;102444.91;;;11.17;100.00
65173;BME280;51758;52.218;5.172;2023-03-03T12:25:38;102426.81;;;10.96;100.00
65173;BME280;51758;52.218;5.172;2023-03-03T12:28:10;102418.22;;;10.57;100.00
65173;BME280;51758;52.218;5.172;2023-03-03T12:31:02;102372.38;;;10.25;100.00
65173;BME280;51758;52.218;5.172;2023-03-03T12:33:53;102392.69;;;10.12;100.00
65173;BME280;51758;52.218;5.172;2023-03-03T12:36:58;102393.09;;;9.98;100.00
65173;BME280;51758;52.218;5.172;2023-03-03T12:39:40;102458.50;;;9.76;100.00
65173;BME280;51758;52.218;5.172;2023-03-03T12:42:18;102424.06;;;9.72;100.00
65173;BME280;51758;52.218;5.172;2023-03-03T12:44:54;102361.19;;;10.62;100.00
65173;BME280;51758;52.218;5.172;2023-03-03T12:47:28;102382.66;;;11.84;100.00
65173;BME280;51758;52.218;5.172;2023-03-03T12:50:06;102443.41;;;13.45;100.00
65173;BME280;51758;52.218;5.172;2023-03-03T12:52:45;102468.63;;;13.80;100.00
65173;BME280;51758;52.218;5.172;2023-03-03T12:55:23;102494.41;;;12.73;100.00
65173;BME280;51758;52.218;5.172;2023-03-03T12:58:04;102496.50;;;11.61;100.00
65173;BME280;51758;52.218;5.172;2023-03-03T13:00:43;102445.41;;;11.39;100.00
65173;BME280;51758;52.218;5.172;2023-03-03T13:03:34;102462.13;;;11.83;100.00
65173;BME280;51758;52.218;5.172;2023-03-03T13:06:26;102445.94;;;12.15;100.00
65173;BME280;51758;52.218;5.172;2023-03-03T13:09:06;102501.00;;;12.59;100.00
65173;BME280;51758;52.218;5.172;2023-03-03T13:12:01;102511.28;;;11.90;100.00
65173;BME280;51758;52.218;5.172;2023-03-03T13:14:36;102473.34;;;11.29;100.00
65173;BME280;51758;52.218;5.172;2023-03-03T13:17:16;102478.84;;;12.18;100.00
65173;BME280;51758;52.218;5.172;2023-03-03T13:19:50;102508.28;;;11.75;100.00
65173;BME280;51758;52.218;5.172;2023-03-03T13:22:29;102502.00;;;11.21;100.00
65173;BME280;51758;52.218;5.172;2023-03-03T13:25:02;102518.94;;;11.17;100.00
65173;BME280;51758;52.218;5.172;2023-03-03T13:27:37;102503.97;;;11.09;100.00
65173;BME280;51758;52.218;5.172;2023-03-03T13:30:16;102510.16;;;10.99;100.00
65173;BME280;51758;52.218;5.172;2023-03-03T13:32:51;102479.41;;;10.73;100.00
65173;BME280;51758;52.218;5.172;2023-03-03T13:35:32;102503.16;;;10.51;100.00
65173;BME280;51758;52.218;5.172;2023-03-03T13:38:05;102502.78;;;10.75;100.00
65173;BME280;51758;52.218;5.172;2023-03-03T13:40:41;102503.84;;;10.53;100.00
65173;BME280;51758;52.218;5.172;2023-03-03T13:43:15;102500.56;;;10.41;100.00
65173;BME280;51758;52.218;5.172;2023-03-03T13:45:55;102496.88;;;9.85;100.00
65173;BME280;51758;52.218;5.172;2023-03-03T13:48:40;102499.81;;;10.11;100.00
65173;BME280;51758;52.218;5.172;2023-03-03T13:51:21;102491.16;;;10.10;100.00